sensor_id;sensor_type;location;lat;lon;timestamp;temperature;humidity
3053;DHT22;1536;51.098;6.414;2022-09-09T00:01:20;18.90;99.90
3053;DHT22;1536;51.098;6.414;2022-09-09T00:03:54;18.90;99.90
3053;DHT22;1536;51.098;6.414;2022-09-09T00:06:29;18.90;99.90
3053;DHT22;1536;51.098;6.414;2022-09-09T00:09:02;18.90;99.90
3053;DHT22;1536;51.098;6.414;2022-09-09T00:11:37;18.80;99.90
3053;DHT22;1536;51.098;6.414;2022-09-09T00:14:13;18.80;99.90
3053;DHT22;1536;51.098;6.414;2022-09-09T00:16:41;18.80;99.90
3053;DHT22;1536;51.098;6.414;2022-09-09T00:19:18;18.80;99.90
3053;DHT22;1536;51.098;6.414;2022-09-09T00:21:57;18.80;99.90
3053;DHT22;1536;51.098;6.414;2022-09-09T00:24:29;18.70;99.90
3053;DHT22;1536;51.098;6.414;2022-09-09T00:27:11;18.70;99.90
3053;DHT22;1536;51.098;6.414;2022-09-09T00:29:43;18.70;99.90
3053;DHT22;1536;51.098;6.414;2022-09-09T00:32:13;18.70;99.90
3053;DHT22;1536;51.098;6.414;2022-09-09T00:34:48;18.70;99.90
3053;DHT22;1536;51.098;6.414;2022-09-09T00:37:19;18.80;99.90
3053;DHT22;1536;51.098;6.414;2022-09-09T00:39:47;18.70;99.90
3053;DHT22;1536;51.098;6.414;2022-09-09T00:42:16;18.80;99.90
3053;DHT22;1536;51.098;6.414;2022-09-09T00:44:55;18.70;99.90
3053;DHT22;1536;51.098;6.414;2022-09-09T00:47:49;18.70;99.90
3053;DHT22;1536;51.098;6.414;2022-09-09T00:50:43;18.70;99.90
3053;DHT22;1536;51.098;6.414;2022-09-09T00:53:28;18.70;99.90
3053;DHT22;1536;51.098;6.414;2022-09-09T00:56:04;18.70;99.90
3053;DHT22;1536;51.098;6.414;2022-09-09T00:58:34;18.70;99.90
3053;DHT22;1536;51.098;6.414;2022-09-09T01:01:04;18.70;99.90
3053;DHT22;1536;51.098;6.414;2022-09-09T01:03:34;18.70;99.90
3053;DHT22;1536;51.098;6.414;2022-09-09T01:06:16;18.70;99.90
3053;DHT22;1536;51.098;6.414;2022-09-09T01:09:15;18.70;99.90
3053;DHT22;1536;51.098;6.414;2022-09-09T01:11:52;18.70;99.90
3053;DHT22;1536;51.098;6.414;2022-09-09T01:14:30;18.70;99.90
3053;DHT22;1536;51.098;6.414;2022-09-09T01:17:01;18.70;99.90
3053;DHT22;1536;51.098;6.414;2022-09-09T01:19:37;18.70;99.90
3053;DHT22;1536;51.098;6.414;2022-09-09T01:22:11;18.70;99.90
3053;DHT22;1536;51.098;6.414;2022-09-09T01:24:48;18.70;99.90
3053;DHT22;1536;51.098;6.414;2022-09-09T01:27:20;18.70;99.90
3053;DHT22;1536;51.098;6.414;2022-09-09T01:29:48;18.70;99.90
3053;DHT22;1536;51.098;6.414;2022-09-09T01:32:40;18.60;99.90
3053;DHT22;1536;51.098;6.414;2022-09-09T01:35:10;18.60;99.90
3053;DHT22;1536;51.098;6.414;2022-09-09T01:37:38;18.60;99.90
3053;DHT22;1536;51.098;6.414;2022-09-09T01:40:06;18.60;99.90
3053;DHT22;1536;51.098;6.414;2022-09-09T01:42:34;18.60;99.90
3053;DHT22;1536;51.098;6.414;2022-09-09T01:45:02;18.60;99.90
3053;DHT22;1536;51.098;6.414;2022-09-09T01:47:29;18.60;99.90
3053;DHT22;1536;51.098;6.414;2022-09-09T01:49:56;18.60;99.90
3053;DHT22;1536;51.098;6.414;2022-09-09T01:52:22;18.60;99.90
3053;DHT22;1536;51.098;6.414;2022-09-09T01:54:49;18.60;99.90
3053;DHT22;1536;51.098;6.414;2022-09-09T01:57:21;18.60;99.90
3053;DHT22;1536;51.098;6.414;2022-09-09T02:00:00;18.60;99.90
3053;DHT22;1536;51.098;6.414;2022-09-09T02:02:33;18.60;99.90
3053;DHT22;1536;51.098;6.414;2022-09-09T02:05:11;18.60;99.90
3053;DHT22;1536;51.098;6.414;2022-09-09T02:07:42;18.60;99.90
3053;DHT22;1536;51.098;6.414;2022-09-09T02:10:18;18.60;99.90
3053;DHT22;1536;51.098;6.414;2022-09-09T02:12:49;18.60;99.90
3053;DHT22;1536;51.098;6.414;2022-09-09T02:15:23;18.50;99.90
3053;DHT22;1536;51.098;6.414;2022-09-09T02:17:54;18.50;99.90
3053;DHT22;1536;51.098;6.414;2022-09-09T02:20:26;18.50;99.90
3053;DHT22;1536;51.098;6.414;2022-09-09T02:22:54;18.50;99.90
3053;DHT22;1536;51.098;6.414;2022-09-09T02:25:24;18.50;99.90
3053;DHT22;1536;51.098;6.414;2022-09-09T02:27:52;18.50;99.90
3053;DHT22;1536;51.098;6.414;2022-09-09T02:30:20;18.50;99.90
3053;DHT22;1536;51.098;6.414;2022-09-09T02:32:49;18.50;99.90
3053;DHT22;1536;51.098;6.414;2022-09-09T02:35:19;18.50;99.90
3053;DHT22;1536;51.098;6.414;2022-09-09T02:37:46;18.40;99.90
3053;DHT22;1536;51.098;6.414;2022-09-09T02:40:14;18.40;99.90
3053;DHT22;1536;51.098;6.414;2022-09-09T02:42:42;18.40;99.90
3053;DHT22;1536;51.098;6.414;2022-09-09T02:45:11;18.40;99.90
3053;DHT22;1536;51.098;6.414;2022-09-09T02:47:46;18.40;99.90
3053;DHT22;1536;51.098;6.414;2022-09-09T02:50:18;18.40;99.90
3053;DHT22;1536;51.098;6.414;2022-09-09T02:52:54;18.40;99.90
3053;DHT22;1536;51.098;6.414;2022-09-09T02:55:33;18.50;99.90
3053;DHT22;1536;51.098;6.414;2022-09-09T02:58:03;18.40;99.90
3053;DHT22;1536;51.098;6.414;2022-09-09T03:00:31;18.40;99.90
3053;DHT22;1536;51.098;6.414;2022-09-09T03:03:03;18.40;99.90
3053;DHT22;1536;51.098;6.414;2022-09-09T03:05:29;18.50;99.90
3053;DHT22;1536;51.098;6.414;2022-09-09T03:07:57;18.40;99.90
3053;DHT22;1536;51.098;6.414;2022-09-09T03:10:24;18.40;99.90
3053;DHT22;1536;51.098;6.414;2022-09-09T03:12:51;18.40;99.90
3053;DHT22;1536;51.098;6.414;2022-09-09T03:15:21;18.40;99.90
3053;DHT22;1536;51.098;6.414;2022-09-09T03:17:48;18.40;99.90
3053;DHT22;1536;51.098;6.414;2022-09-09T03:20:16;18.40;99.90
3053;DHT22;1536;51.098;6.414;2022-09-09T03:22:43;18.40;99.90
3053;DHT22;1536;51.098;6.414;2022-09-09T03:25:10;18.40;99.90
3053;DHT22;1536;51.098;6.414;2022-09-09T03:27:37;18.40;99.90
3053;DHT22;1536;51.098;6.414;2022-09-09T03:30:04;18.40;99.90
3053;DHT22;1536;51.098;6.414;2022-09-09T03:32:31;18.40;99.90
3053;DHT22;1536;51.098;6.414;2022-09-09T03:34:58;18.40;99.90
3053;DHT22;1536;51.098;6.414;2022-09-09T03:37:26;18.40;99.90
3053;DHT22;1536;51.098;6.414;2022-09-09T03:39:53;18.40;99.90
3053;DHT22;1536;51.098;6.414;2022-09-09T03:42:21;18.40;99.90
3053;DHT22;1536;51.098;6.414;2022-09-09T03:44:48;18.40;99.90
3053;DHT22;1536;51.098;6.414;2022-09-09T03:47:16;18.40;99.90
3053;DHT22;1536;51.098;6.414;2022-09-09T03:49:44;18.40;99.90
3053;DHT22;1536;51.098;6.414;2022-09-09T03:52:11;18.40;99.90
3053;DHT22;1536;51.098;6.414;2022-09-09T03:54:39;18.40;99.90
3053;DHT22;1536;51.098;6.414;2022-09-09T03:57:08;18.40;99.90
3053;DHT22;1536;51.098;6.414;2022-09-09T03:59:35;18.50;99.90
3053;DHT22;1536;51.098;6.414;2022-09-09T04:02:02;18.50;99.90
3053;DHT22;1536;51.098;6.414;2022-09-09T04:04:29;18.50;99.90
3053;DHT22;1536;51.098;6.414;2022-09-09T04:06:55;18.50;99.90
3053;DHT22;1536;51.098;6.414;2022-09-09T04:09:23;18.50;99.90
3053;DHT22;1536;51.098;6.414;2022-09-09T04:11:51;18.50;99.90
3053;DHT22;1536;51.098;6.414;2022-09-09T04:14:18;18.50;99.90
3053;DHT22;1536;51.098;6.414;2022-09-09T04:16:45;18.50;99.90
3053;DHT22;1536;51.098;6.414;2022-09-09T04:19:12;18.50;99.90
3053;DHT22;1536;51.098;6.414;2022-09-09T04:21:40;18.50;99.90
3053;DHT22;1536;51.098;6.414;2022-09-09T04:24:07;18.50;99.90
3053;DHT22;1536;51.098;6.414;2022-09-09T04:26:34;18.50;99.90
3053;DHT22;1536;51.098;6.414;2022-09-09T04:29:03;18.50;99.90
3053;DHT22;1536;51.098;6.414;2022-09-09T04:31:30;18.50;99.90
3053;DHT22;1536;51.098;6.414;2022-09-09T04:33:57;18.60;99.90
3053;DHT22;1536;51.098;6.414;2022-09-09T04:36:27;18.60;99.90
3053;DHT22;1536;51.098;6.414;2022-09-09T04:38:54;18.60;99.90
3053;DHT22;1536;51.098;6.414;2022-09-09T04:41:21;18.60;99.90
3053;DHT22;1536;51.098;6.414;2022-09-09T04:43:48;18.60;99.90
3053;DHT22;1536;51.098;6.414;2022-09-09T04:46:16;18.60;99.90
3053;DHT22;1536;51.098;6.414;2022-09-09T04:48:43;18.60;99.90
3053;DHT22;1536;51.098;6.414;2022-09-09T04:51:12;18.60;99.90
3053;DHT22;1536;51.098;6.414;2022-09-09T04:53:39;18.60;99.90
3053;DHT22;1536;51.098;6.414;2022-09-09T04:56:08;18.60;99.90
3053;DHT22;1536;51.098;6.414;2022-09-09T04:58:36;18.60;99.90
3053;DHT22;1536;51.098;6.414;2022-09-09T05:01:07;18.60;99.90
3053;DHT22;1536;51.098;6.414;2022-09-09T05:03:36;18.60;99.90
3053;DHT22;1536;51.098;6.414;2022-09-09T05:06:07;18.60;99.90
3053;DHT22;1536;51.098;6.414;2022-09-09T05:08:36;18.60;99.90
3053;DHT22;1536;51.098;6.414;2022-09-09T05:11:03;18.70;99.90
3053;DHT22;1536;51.098;6.414;2022-09-09T05:13:30;18.60;99.90
3053;DHT22;1536;51.098;6.414;2022-09-09T05:15:57;18.70;99.90
3053;DHT22;1536;51.098;6.414;2022-09-09T05:18:24;18.70;99.90
3053;DHT22;1536;51.098;6.414;2022-09-09T05:20:58;18.70;99.90
3053;DHT22;1536;51.098;6.414;2022-09-09T05:23:25;18.60;99.90
3053;DHT22;1536;51.098;6.414;2022-09-09T05:25:56;18.70;99.90
3053;DHT22;1536;51.098;6.414;2022-09-09T05:28:24;18.70;99.90
3053;DHT22;1536;51.098;6.414;2022-09-09T05:31:02;18.70;99.90
3053;DHT22;1536;51.098;6.414;2022-09-09T05:33:31;18.70;99.90
3053;DHT22;1536;51.098;6.414;2022-09-09T05:36:01;18.70;99.90
3053;DHT22;1536;51.098;6.414;2022-09-09T05:38:29;18.70;99.90
3053;DHT22;1536;51.098;6.414;2022-09-09T05:40:56;18.70;99.90
3053;DHT22;1536;51.098;6.414;2022-09-09T05:43:24;18.70;99.90
3053;DHT22;1536;51.098;6.414;2022-09-09T05:45:59;18.70;99.90
3053;DHT22;1536;51.098;6.414;2022-09-09T05:48:28;18.70;99.90
3053;DHT22;1536;51.098;6.414;2022-09-09T05:50:55;18.70;99.90
3053;DHT22;1536;51.098;6.414;2022-09-09T05:53:23;18.70;99.90
3053;DHT22;1536;51.098;6.414;2022-09-09T05:55:50;18.70;99.90
3053;DHT22;1536;51.098;6.414;2022-09-09T05:58:18;18.70;99.90
3053;DHT22;1536;51.098;6.414;2022-09-09T06:00:44;18.70;99.90
3053;DHT22;1536;51.098;6.414;2022-09-09T06:03:11;18.70;99.90
3053;DHT22;1536;51.098;6.414;2022-09-09T06:05:38;18.70;99.90
3053;DHT22;1536;51.098;6.414;2022-09-09T06:08:05;18.70;99.90
3053;DHT22;1536;51.098;6.414;2022-09-09T06:10:34;18.70;99.90
3053;DHT22;1536;51.098;6.414;2022-09-09T06:13:01;18.60;99.90
3053;DHT22;1536;51.098;6.414;2022-09-09T06:15:28;18.60;99.90
3053;DHT22;1536;51.098;6.414;2022-09-09T06:17:56;18.60;99.90
3053;DHT22;1536;51.098;6.414;2022-09-09T06:20:22;18.60;99.90
3053;DHT22;1536;51.098;6.414;2022-09-09T06:22:49;18.60;99.90
3053;DHT22;1536;51.098;6.414;2022-09-09T06:25:16;18.60;99.90
3053;DHT22;1536;51.098;6.414;2022-09-09T06:27:48;18.70;99.90
3053;DHT22;1536;51.098;6.414;2022-09-09T06:30:15;18.70;99.90
3053;DHT22;1536;51.098;6.414;2022-09-09T06:32:42;18.70;99.90
3053;DHT22;1536;51.098;6.414;2022-09-09T06:35:09;18.70;99.90
3053;DHT22;1536;51.098;6.414;2022-09-09T06:37:36;18.70;99.90
3053;DHT22;1536;51.098;6.414;2022-09-09T06:40:03;18.70;99.90
3053;DHT22;1536;51.098;6.414;2022-09-09T06:42:30;18.80;99.90
3053;DHT22;1536;51.098;6.414;2022-09-09T06:44:58;18.80;99.90
3053;DHT22;1536;51.098;6.414;2022-09-09T06:47:25;18.80;99.90
3053;DHT22;1536;51.098;6.414;2022-09-09T06:49:52;18.80;99.90
3053;DHT22;1536;51.098;6.414;2022-09-09T06:52:19;18.80;99.90
3053;DHT22;1536;51.098;6.414;2022-09-09T06:54:46;18.80;99.90
3053;DHT22;1536;51.098;6.414;2022-09-09T06:57:12;18.80;99.90
3053;DHT22;1536;51.098;6.414;2022-09-09T06:59:39;18.80;99.90
3053;DHT22;1536;51.098;6.414;2022-09-09T07:02:09;18.80;99.90
3053;DHT22;1536;51.098;6.414;2022-09-09T07:04:36;18.80;99.90
3053;DHT22;1536;51.098;6.414;2022-09-09T07:07:03;18.80;99.90
3053;DHT22;1536;51.098;6.414;2022-09-09T07:09:30;18.80;99.90
3053;DHT22;1536;51.098;6.414;2022-09-09T07:11:57;18.90;99.90
3053;DHT22;1536;51.098;6.414;2022-09-09T07:14:25;18.90;99.90
3053;DHT22;1536;51.098;6.414;2022-09-09T07:16:52;18.90;99.90
3053;DHT22;1536;51.098;6.414;2022-09-09T07:19:20;18.80;99.90
3053;DHT22;1536;51.098;6.414;2022-09-09T07:21:47;18.80;99.90
3053;DHT22;1536;51.098;6.414;2022-09-09T07:24:14;18.90;99.90
3053;DHT22;1536;51.098;6.414;2022-09-09T07:26:41;18.90;99.90
3053;DHT22;1536;51.098;6.414;2022-09-09T07:29:09;18.90;99.90
3053;DHT22;1536;51.098;6.414;2022-09-09T07:31:39;19.00;99.90
3053;DHT22;1536;51.098;6.414;2022-09-09T07:34:06;19.00;99.90
3053;DHT22;1536;51.098;6.414;2022-09-09T07:36:35;19.10;99.90
3053;DHT22;1536;51.098;6.414;2022-09-09T07:39:06;19.20;99.90
3053;DHT22;1536;51.098;6.414;2022-09-09T07:41:34;19.20;99.90
3053;DHT22;1536;51.098;6.414;2022-09-09T07:44:05;19.30;99.90
3053;DHT22;1536;51.098;6.414;2022-09-09T07:46:32;19.30;99.90
3053;DHT22;1536;51.098;6.414;2022-09-09T07:48:59;19.30;99.90
3053;DHT22;1536;51.098;6.414;2022-09-09T07:51:28;19.30;99.90
3053;DHT22;1536;51.098;6.414;2022-09-09T07:53:58;19.30;99.90
3053;DHT22;1536;51.098;6.414;2022-09-09T07:56:26;19.30;99.90
3053;DHT22;1536;51.098;6.414;2022-09-09T07:58:54;19.40;99.90
3053;DHT22;1536;51.098;6.414;2022-09-09T08:01:24;19.40;99.90
3053;DHT22;1536;51.098;6.414;2022-09-09T08:03:54;19.40;99.90
3053;DHT22;1536;51.098;6.414;2022-09-09T08:06:21;19.40;99.90
3053;DHT22;1536;51.098;6.414;2022-09-09T08:08:51;19.40;99.90
3053;DHT22;1536;51.098;6.414;2022-09-09T08:11:19;19.50;99.90
3053;DHT22;1536;51.098;6.414;2022-09-09T08:13:46;19.50;99.90
3053;DHT22;1536;51.098;6.414;2022-09-09T08:16:15;19.50;99.90
3053;DHT22;1536;51.098;6.414;2022-09-09T08:18:42;19.50;99.90
3053;DHT22;1536;51.098;6.414;2022-09-09T08:21:12;19.50;99.90
3053;DHT22;1536;51.098;6.414;2022-09-09T08:23:40;19.50;99.90
3053;DHT22;1536;51.098;6.414;2022-09-09T08:26:10;19.50;99.90
3053;DHT22;1536;51.098;6.414;2022-09-09T08:28:39;19.50;99.90
3053;DHT22;1536;51.098;6.414;2022-09-09T08:31:08;19.60;99.90
3053;DHT22;1536;51.098;6.414;2022-09-09T08:33:35;19.60;99.90
3053;DHT22;1536;51.098;6.414;2022-09-09T08:36:04;19.70;99.90
3053;DHT22;1536;51.098;6.414;2022-09-09T08:38:32;19.70;99.90
3053;DHT22;1536;51.098;6.414;2022-09-09T08:41:07;19.70;99.90
3053;DHT22;1536;51.098;6.414;2022-09-09T08:43:36;19.70;99.90
3053;DHT22;1536;51.098;6.414;2022-09-09T08:46:09;19.80;99.90
3053;DHT22;1536;51.098;6.414;2022-09-09T08:48:48;19.80;99.90
3053;DHT22;1536;51.098;6.414;2022-09-09T08:51:19;19.80;99.90
3053;DHT22;1536;51.098;6.414;2022-09-09T08:53:48;19.80;99.90
3053;DHT22;1536;51.098;6.414;2022-09-09T08:56:19;19.80;99.90
3053;DHT22;1536;51.098;6.414;2022-09-09T08:58:49;19.80;99.90
3053;DHT22;1536;51.098;6.414;2022-09-09T09:01:33;19.80;99.90
3053;DHT22;1536;51.098;6.414;2022-09-09T09:04:07;19.80;99.90
3053;DHT22;1536;51.098;6.414;2022-09-09T09:06:48;19.80;99.90
3053;DHT22;1536;51.098;6.414;2022-09-09T09:09:22;19.90;99.90
3053;DHT22;1536;51.098;6.414;2022-09-09T09:11:53;19.90;99.90
3053;DHT22;1536;51.098;6.414;2022-09-09T09:14:23;20.00;99.90
3053;DHT22;1536;51.098;6.414;2022-09-09T09:16:54;20.10;99.90
3053;DHT22;1536;51.098;6.414;2022-09-09T09:19:23;20.20;99.90
3053;DHT22;1536;51.098;6.414;2022-09-09T09:21:54;20.30;99.90
3053;DHT22;1536;51.098;6.414;2022-09-09T09:24:27;20.30;99.90
3053;DHT22;1536;51.098;6.414;2022-09-09T09:26:58;20.40;99.90
3053;DHT22;1536;51.098;6.414;2022-09-09T09:29:26;20.40;99.90
3053;DHT22;1536;51.098;6.414;2022-09-09T09:31:56;20.40;99.90
3053;DHT22;1536;51.098;6.414;2022-09-09T09:34:26;20.50;99.90
3053;DHT22;1536;51.098;6.414;2022-09-09T09:36:56;20.50;99.90
3053;DHT22;1536;51.098;6.414;2022-09-09T09:39:28;20.60;99.90
3053;DHT22;1536;51.098;6.414;2022-09-09T09:41:55;20.70;99.90
3053;DHT22;1536;51.098;6.414;2022-09-09T09:44:25;20.70;99.90
3053;DHT22;1536;51.098;6.414;2022-09-09T09:46:52;20.70;99.90
3053;DHT22;1536;51.098;6.414;2022-09-09T09:49:21;20.80;99.90
3053;DHT22;1536;51.098;6.414;2022-09-09T09:51:47;20.80;99.90
3053;DHT22;1536;51.098;6.414;2022-09-09T09:54:19;20.70;99.90
3053;DHT22;1536;51.098;6.414;2022-09-09T09:56:48;20.80;99.90
3053;DHT22;1536;51.098;6.414;2022-09-09T09:59:23;20.70;99.90
3053;DHT22;1536;51.098;6.414;2022-09-09T10:02:13;20.80;99.90
3053;DHT22;1536;51.098;6.414;2022-09-09T10:04:41;20.80;99.90
3053;DHT22;1536;51.098;6.414;2022-09-09T10:07:12;20.70;99.90
3053;DHT22;1536;51.098;6.414;2022-09-09T10:09:40;20.80;99.90
3053;DHT22;1536;51.098;6.414;2022-09-09T10:12:16;20.80;99.90
3053;DHT22;1536;51.098;6.414;2022-09-09T10:14:51;20.90;99.90
3053;DHT22;1536;51.098;6.414;2022-09-09T10:17:31;21.00;99.90
3053;DHT22;1536;51.098;6.414;2022-09-09T10:20:14;21.10;99.90
3053;DHT22;1536;51.098;6.414;2022-09-09T10:22:50;21.10;99.90
3053;DHT22;1536;51.098;6.414;2022-09-09T10:25:35;21.20;99.90
3053;DHT22;1536;51.098;6.414;2022-09-09T10:31:15;21.20;99.90
3053;DHT22;1536;51.098;6.414;2022-09-09T10:33:50;21.10;99.90
3053;DHT22;1536;51.098;6.414;2022-09-09T10:36:20;21.10;99.90
3053;DHT22;1536;51.098;6.414;2022-09-09T10:38:50;21.10;99.90
3053;DHT22;1536;51.098;6.414;2022-09-09T10:41:20;21.00;99.90
3053;DHT22;1536;51.098;6.414;2022-09-09T10:44:09;21.00;99.90
3053;DHT22;1536;51.098;6.414;2022-09-09T10:46:52;21.00;99.90
3053;DHT22;1536;51.098;6.414;2022-09-09T10:49:34;20.90;99.90
3053;DHT22;1536;51.098;6.414;2022-09-09T10:52:09;20.90;99.90
3053;DHT22;1536;51.098;6.414;2022-09-09T10:54:51;20.90;99.90
3053;DHT22;1536;51.098;6.414;2022-09-09T10:57:26;21.00;99.90
3053;DHT22;1536;51.098;6.414;2022-09-09T10:59:57;21.00;99.90
3053;DHT22;1536;51.098;6.414;2022-09-09T11:02:27;21.00;99.90
3053;DHT22;1536;51.098;6.414;2022-09-09T11:04:58;21.00;99.90
3053;DHT22;1536;51.098;6.414;2022-09-09T11:07:34;21.00;99.90
3053;DHT22;1536;51.098;6.414;2022-09-09T11:10:07;21.00;99.90
3053;DHT22;1536;51.098;6.414;2022-09-09T11:12:43;21.00;99.90
3053;DHT22;1536;51.098;6.414;2022-09-09T11:15:17;21.10;99.90
3053;DHT22;1536;51.098;6.414;2022-09-09T11:17:48;21.10;99.90
3053;DHT22;1536;51.098;6.414;2022-09-09T11:20:17;21.10;99.90
3053;DHT22;1536;51.098;6.414;2022-09-09T11:22:48;21.10;99.90
3053;DHT22;1536;51.098;6.414;2022-09-09T11:25:18;21.20;99.90
3053;DHT22;1536;51.098;6.414;2022-09-09T11:27:57;21.20;99.90
3053;DHT22;1536;51.098;6.414;2022-09-09T11:30:32;21.20;99.90
3053;DHT22;1536;51.098;6.414;2022-09-09T11:33:30;21.20;99.90
3053;DHT22;1536;51.098;6.414;2022-09-09T11:36:13;21.20;99.90
3053;DHT22;1536;51.098;6.414;2022-09-09T11:38:47;21.20;99.90
3053;DHT22;1536;51.098;6.414;2022-09-09T11:41:16;21.20;99.90
3053;DHT22;1536;51.098;6.414;2022-09-09T11:43:45;21.20;99.90
3053;DHT22;1536;51.098;6.414;2022-09-09T11:46:14;21.30;99.90
3053;DHT22;1536;51.098;6.414;2022-09-09T11:48:43;21.40;99.90
3053;DHT22;1536;51.098;6.414;2022-09-09T11:51:12;21.40;99.90
3053;DHT22;1536;51.098;6.414;2022-09-09T11:53:52;21.40;99.90
3053;DHT22;1536;51.098;6.414;2022-09-09T11:56:27;21.50;99.90
3053;DHT22;1536;51.098;6.414;2022-09-09T11:58:57;21.50;99.90
3053;DHT22;1536;51.098;6.414;2022-09-09T12:01:44;21.60;99.90
3053;DHT22;1536;51.098;6.414;2022-09-09T12:07:30;21.60;99.90
3053;DHT22;1536;51.098;6.414;2022-09-09T12:10:02;21.60;99.90
3053;DHT22;1536;51.098;6.414;2022-09-09T12:12:32;21.60;99.90
3053;DHT22;1536;51.098;6.414;2022-09-09T12:15:22;21.60;99.90
3053;DHT22;1536;51.098;6.414;2022-09-09T12:17:55;21.60;99.90
3053;DHT22;1536;51.098;6.414;2022-09-09T12:20:23;21.50;99.90
3053;DHT22;1536;51.098;6.414;2022-09-09T12:23:11;21.50;99.90
3053;DHT22;1536;51.098;6.414;2022-09-09T12:25:53;21.50;99.90
3053;DHT22;1536;51.098;6.414;2022-09-09T12:28:24;21.40;99.90
3053;DHT22;1536;51.098;6.414;2022-09-09T12:30:58;21.30;99.90
3053;DHT22;1536;51.098;6.414;2022-09-09T12:33:34;21.20;99.90
3053;DHT22;1536;51.098;6.414;2022-09-09T12:36:02;21.20;99.90
3053;DHT22;1536;51.098;6.414;2022-09-09T12:38:32;21.10;99.90
3053;DHT22;1536;51.098;6.414;2022-09-09T12:41:02;21.00;99.90
3053;DHT22;1536;51.098;6.414;2022-09-09T12:43:29;20.90;99.90
3053;DHT22;1536;51.098;6.414;2022-09-09T12:45:58;20.90;99.90
3053;DHT22;1536;51.098;6.414;2022-09-09T12:48:31;20.90;99.90
3053;DHT22;1536;51.098;6.414;2022-09-09T12:50:59;21.00;99.90
3053;DHT22;1536;51.098;6.414;2022-09-09T12:53:30;21.00;99.90
3053;DHT22;1536;51.098;6.414;2022-09-09T12:56:03;21.00;99.90
3053;DHT22;1536;51.098;6.414;2022-09-09T12:58:31;21.00;99.90
3053;DHT22;1536;51.098;6.414;2022-09-09T13:01:02;21.00;99.90
3053;DHT22;1536;51.098;6.414;2022-09-09T13:03:31;21.00;99.90
3053;DHT22;1536;51.098;6.414;2022-09-09T13:05:59;21.10;99.90
3053;DHT22;1536;51.098;6.414;2022-09-09T13:08:36;21.10;99.90
3053;DHT22;1536;51.098;6.414;2022-09-09T13:11:07;21.10;99.90
3053;DHT22;1536;51.098;6.414;2022-09-09T13:13:40;21.10;99.90
3053;DHT22;1536;51.098;6.414;2022-09-09T13:16:25;21.10;99.90
3053;DHT22;1536;51.098;6.414;2022-09-09T13:18:57;21.10;99.90
3053;DHT22;1536;51.098;6.414;2022-09-09T13:21:32;21.10;99.90
3053;DHT22;1536;51.098;6.414;2022-09-09T13:24:00;21.00;99.90
3053;DHT22;1536;51.098;6.414;2022-09-09T13:26:30;21.00;99.90
3053;DHT22;1536;51.098;6.414;2022-09-09T13:29:13;21.00;99.90
3053;DHT22;1536;51.098;6.414;2022-09-09T13:31:43;21.00;99.90
3053;DHT22;1536;51.098;6.414;2022-09-09T13:34:11;21.10;99.90
3053;DHT22;1536;51.098;6.414;2022-09-09T13:36:39;21.10;99.90
3053;DHT22;1536;51.098;6.414;2022-09-09T13:39:15;21.20;99.90
3053;DHT22;1536;51.098;6.414;2022-09-09T13:41:44;21.20;99.90
3053;DHT22;1536;51.098;6.414;2022-09-09T13:44:18;21.30;99.90
3053;DHT22;1536;51.098;6.414;2022-09-09T13:46:46;21.30;99.90
3053;DHT22;1536;51.098;6.414;2022-09-09T13:49:21;21.40;99.90
3053;DHT22;1536;51.098;6.414;2022-09-09T13:51:50;21.40;99.90
3053;DHT22;1536;51.098;6.414;2022-09-09T13:54:20;21.50;99.90
3053;DHT22;1536;51.098;6.414;2022-09-09T13:56:49;21.60;99.90
3053;DHT22;1536;51.098;6.414;2022-09-09T13:59:18;21.60;99.90
3053;DHT22;1536;51.098;6.414;2022-09-09T14:01:45;21.60;99.90
3053;DHT22;1536;51.098;6.414;2022-09-09T14:04:13;21.60;99.90
3053;DHT22;1536;51.098;6.414;2022-09-09T14:06:41;21.60;99.90
3053;DHT22;1536;51.098;6.414;2022-09-09T14:09:11;21.50;99.90
3053;DHT22;1536;51.098;6.414;2022-09-09T14:11:39;21.40;99.90
3053;DHT22;1536;51.098;6.414;2022-09-09T14:14:08;21.30;99.90
3053;DHT22;1536;51.098;6.414;2022-09-09T14:16:35;21.20;99.90
3053;DHT22;1536;51.098;6.414;2022-09-09T14:19:03;21.10;99.90
3053;DHT22;1536;51.098;6.414;2022-09-09T14:21:30;21.00;99.90
3053;DHT22;1536;51.098;6.414;2022-09-09T14:23:57;20.90;99.90
3053;DHT22;1536;51.098;6.414;2022-09-09T14:26:24;20.80;99.90
3053;DHT22;1536;51.098;6.414;2022-09-09T14:28:51;20.70;99.90
3053;DHT22;1536;51.098;6.414;2022-09-09T14:31:20;20.50;99.90
3053;DHT22;1536;51.098;6.414;2022-09-09T14:33:47;20.40;99.90
3053;DHT22;1536;51.098;6.414;2022-09-09T14:36:14;20.30;99.90
3053;DHT22;1536;51.098;6.414;2022-09-09T14:38:41;20.20;99.90
3053;DHT22;1536;51.098;6.414;2022-09-09T14:41:14;20.10;99.90
3053;DHT22;1536;51.098;6.414;2022-09-09T14:43:42;20.00;99.90
3053;DHT22;1536;51.098;6.414;2022-09-09T14:46:11;20.00;99.90
3053;DHT22;1536;51.098;6.414;2022-09-09T14:48:39;20.00;99.90
3053;DHT22;1536;51.098;6.414;2022-09-09T14:51:08;20.00;99.90
3053;DHT22;1536;51.098;6.414;2022-09-09T14:53:35;20.00;99.90
3053;DHT22;1536;51.098;6.414;2022-09-09T14:56:04;20.10;99.90
3053;DHT22;1536;51.098;6.414;2022-09-09T14:58:31;20.10;99.90
3053;DHT22;1536;51.098;6.414;2022-09-09T15:01:03;20.10;99.90
3053;DHT22;1536;51.098;6.414;2022-09-09T15:03:30;20.20;99.90
3053;DHT22;1536;51.098;6.414;2022-09-09T15:05:58;20.20;99.90
3053;DHT22;1536;51.098;6.414;2022-09-09T15:08:25;20.20;99.90
3053;DHT22;1536;51.098;6.414;2022-09-09T15:10:59;20.20;99.90
3053;DHT22;1536;51.098;6.414;2022-09-09T15:13:25;20.20;99.90
3053;DHT22;1536;51.098;6.414;2022-09-09T15:15:52;20.20;99.90
3053;DHT22;1536;51.098;6.414;2022-09-09T15:18:20;20.20;99.90
3053;DHT22;1536;51.098;6.414;2022-09-09T15:20:47;20.20;99.90
3053;DHT22;1536;51.098;6.414;2022-09-09T15:23:15;20.20;99.90
3053;DHT22;1536;51.098;6.414;2022-09-09T15:25:50;20.10;99.90
3053;DHT22;1536;51.098;6.414;2022-09-09T15:28:17;20.10;99.90
3053;DHT22;1536;51.098;6.414;2022-09-09T15:30:47;20.10;99.90
3053;DHT22;1536;51.098;6.414;2022-09-09T15:33:14;20.10;99.90
3053;DHT22;1536;51.098;6.414;2022-09-09T15:35:41;20.00;99.90
3053;DHT22;1536;51.098;6.414;2022-09-09T15:38:07;20.00;99.90
3053;DHT22;1536;51.098;6.414;2022-09-09T15:40:36;20.00;99.90
3053;DHT22;1536;51.098;6.414;2022-09-09T15:43:02;19.90;99.90
3053;DHT22;1536;51.098;6.414;2022-09-09T15:45:31;19.90;99.90
3053;DHT22;1536;51.098;6.414;2022-09-09T15:47:59;19.90;99.90
3053;DHT22;1536;51.098;6.414;2022-09-09T15:50:25;19.90;99.90
3053;DHT22;1536;51.098;6.414;2022-09-09T15:52:52;19.90;99.90
3053;DHT22;1536;51.098;6.414;2022-09-09T15:55:19;19.90;99.90
3053;DHT22;1536;51.098;6.414;2022-09-09T15:57:48;19.90;99.90
3053;DHT22;1536;51.098;6.414;2022-09-09T16:00:16;19.90;99.90
3053;DHT22;1536;51.098;6.414;2022-09-09T16:02:43;19.90;99.90
3053;DHT22;1536;51.098;6.414;2022-09-09T16:05:10;19.90;99.90
3053;DHT22;1536;51.098;6.414;2022-09-09T16:07:37;19.80;99.90
3053;DHT22;1536;51.098;6.414;2022-09-09T16:10:05;19.80;99.90
3053;DHT22;1536;51.098;6.414;2022-09-09T16:12:32;19.80;99.90
3053;DHT22;1536;51.098;6.414;2022-09-09T16:15:00;19.80;99.90
3053;DHT22;1536;51.098;6.414;2022-09-09T16:17:27;19.70;99.90
3053;DHT22;1536;51.098;6.414;2022-09-09T16:19:54;19.70;99.90
3053;DHT22;1536;51.098;6.414;2022-09-09T16:22:23;19.70;99.90
3053;DHT22;1536;51.098;6.414;2022-09-09T16:24:49;19.70;99.90
3053;DHT22;1536;51.098;6.414;2022-09-09T16:27:16;19.70;99.90
3053;DHT22;1536;51.098;6.414;2022-09-09T16:29:43;19.70;99.90